sensor_id;sensor_type;location;lat;lon;timestamp;temperature;humidity
41722;DHT22;27407;24.142;-110.310;2023-11-19T00:01:43;30.20;99.90
41722;DHT22;27407;24.142;-110.310;2023-11-19T00:04:09;30.20;99.90
41722;DHT22;27407;24.142;-110.310;2023-11-19T00:06:36;30.00;99.90
41722;DHT22;27407;24.142;-110.310;2023-11-19T00:09:02;29.90;99.90
41722;DHT22;27407;24.142;-110.310;2023-11-19T00:11:30;29.70;99.90
41722;DHT22;27407;24.142;-110.310;2023-11-19T00:13:56;29.70;99.90
41722;DHT22;27407;24.142;-110.310;2023-11-19T00:16:23;29.80;99.90
41722;DHT22;27407;24.142;-110.310;2023-11-19T00:18:49;29.50;99.90
41722;DHT22;27407;24.142;-110.310;2023-11-19T00:21:16;29.40;99.90
41722;DHT22;27407;24.142;-110.310;2023-11-19T00:23:42;29.40;99.90
41722;DHT22;27407;24.142;-110.310;2023-11-19T00:26:09;29.10;99.90
41722;DHT22;27407;24.142;-110.310;2023-11-19T00:28:36;29.00;99.90
41722;DHT22;27407;24.142;-110.310;2023-11-19T00:31:04;28.90;99.90
41722;DHT22;27407;24.142;-110.310;2023-11-19T00:33:31;29.00;99.90
41722;DHT22;27407;24.142;-110.310;2023-11-19T00:35:58;28.90;99.90
41722;DHT22;27407;24.142;-110.310;2023-11-19T00:38:24;28.80;99.90
41722;DHT22;27407;24.142;-110.310;2023-11-19T00:40:51;28.80;99.90
41722;DHT22;27407;24.142;-110.310;2023-11-19T00:43:17;28.60;99.90
41722;DHT22;27407;24.142;-110.310;2023-11-19T00:45:48;28.70;99.90
41722;DHT22;27407;24.142;-110.310;2023-11-19T00:48:16;28.60;99.90
41722;DHT22;27407;24.142;-110.310;2023-11-19T00:50:43;28.40;99.90
41722;DHT22;27407;24.142;-110.310;2023-11-19T00:53:11;28.30;99.90
41722;DHT22;27407;24.142;-110.310;2023-11-19T00:55:37;28.20;99.90
41722;DHT22;27407;24.142;-110.310;2023-11-19T00:58:04;28.20;99.90
41722;DHT22;27407;24.142;-110.310;2023-11-19T01:00:31;28.30;99.90
41722;DHT22;27407;24.142;-110.310;2023-11-19T01:02:58;28.10;99.90
41722;DHT22;27407;24.142;-110.310;2023-11-19T01:05:26;28.30;99.90
41722;DHT22;27407;24.142;-110.310;2023-11-19T01:07:54;28.10;99.90
41722;DHT22;27407;24.142;-110.310;2023-11-19T01:10:21;28.00;99.90
41722;DHT22;27407;24.142;-110.310;2023-11-19T01:12:48;27.90;99.90
41722;DHT22;27407;24.142;-110.310;2023-11-19T01:15:15;28.00;99.90
41722;DHT22;27407;24.142;-110.310;2023-11-19T01:17:41;27.90;99.90
41722;DHT22;27407;24.142;-110.310;2023-11-19T01:20:09;27.80;99.90
41722;DHT22;27407;24.142;-110.310;2023-11-19T01:22:39;28.00;99.90
41722;DHT22;27407;24.142;-110.310;2023-11-19T01:25:07;28.00;99.90
41722;DHT22;27407;24.142;-110.310;2023-11-19T01:27:33;27.90;99.90
41722;DHT22;27407;24.142;-110.310;2023-11-19T01:30:02;27.80;99.90
41722;DHT22;27407;24.142;-110.310;2023-11-19T01:32:35;27.80;99.90
41722;DHT22;27407;24.142;-110.310;2023-11-19T01:35:03;27.70;99.90
41722;DHT22;27407;24.142;-110.310;2023-11-19T01:37:30;27.70;99.90
41722;DHT22;27407;24.142;-110.310;2023-11-19T01:39:58;27.60;99.90
41722;DHT22;27407;24.142;-110.310;2023-11-19T01:42:24;27.80;99.90
41722;DHT22;27407;24.142;-110.310;2023-11-19T01:45:10;27.70;99.90
41722;DHT22;27407;24.142;-110.310;2023-11-19T01:47:42;27.80;99.90
41722;DHT22;27407;24.142;-110.310;2023-11-19T01:50:09;27.70;99.90
41722;DHT22;27407;24.142;-110.310;2023-11-19T01:52:36;27.70;99.90
41722;DHT22;27407;24.142;-110.310;2023-11-19T01:55:04;27.50;99.90
41722;DHT22;27407;24.142;-110.310;2023-11-19T01:57:30;27.60;99.90
41722;DHT22;27407;24.142;-110.310;2023-11-19T01:59:57;27.50;99.90
41722;DHT22;27407;24.142;-110.310;2023-11-19T02:02:25;27.40;99.90
41722;DHT22;27407;24.142;-110.310;2023-11-19T02:04:53;27.60;99.90
41722;DHT22;27407;24.142;-110.310;2023-11-19T02:07:19;27.50;99.90
41722;DHT22;27407;24.142;-110.310;2023-11-19T02:09:46;27.40;99.90
41722;DHT22;27407;24.142;-110.310;2023-11-19T02:12:13;27.30;99.90
41722;DHT22;27407;24.142;-110.310;2023-11-19T02:14:39;27.40;99.90
41722;DHT22;27407;24.142;-110.310;2023-11-19T02:17:06;27.50;99.90
41722;DHT22;27407;24.142;-110.310;2023-11-19T02:19:33;27.40;99.90
41722;DHT22;27407;24.142;-110.310;2023-11-19T02:21:59;27.40;99.90
41722;DHT22;27407;24.142;-110.310;2023-11-19T02:24:29;27.50;99.90
41722;DHT22;27407;24.142;-110.310;2023-11-19T02:27:10;27.40;99.90
41722;DHT22;27407;24.142;-110.310;2023-11-19T02:29:42;27.30;99.90
41722;DHT22;27407;24.142;-110.310;2023-11-19T02:32:08;27.30;99.90
41722;DHT22;27407;24.142;-110.310;2023-11-19T02:34:35;27.30;99.90
41722;DHT22;27407;24.142;-110.310;2023-11-19T02:37:02;27.30;99.90
41722;DHT22;27407;24.142;-110.310;2023-11-19T02:39:29;27.30;99.90
41722;DHT22;27407;24.142;-110.310;2023-11-19T02:41:56;27.20;99.90
41722;DHT22;27407;24.142;-110.310;2023-11-19T02:44:23;27.20;99.90
41722;DHT22;27407;24.142;-110.310;2023-11-19T02:46:50;27.10;99.90
41722;DHT22;27407;24.142;-110.310;2023-11-19T02:49:17;27.10;99.90
41722;DHT22;27407;24.142;-110.310;2023-11-19T02:51:44;27.10;99.90
41722;DHT22;27407;24.142;-110.310;2023-11-19T02:54:10;27.20;99.90
41722;DHT22;27407;24.142;-110.310;2023-11-19T02:56:37;27.20;99.90
41722;DHT22;27407;24.142;-110.310;2023-11-19T02:59:05;27.20;99.90
41722;DHT22;27407;24.142;-110.310;2023-11-19T03:01:41;27.10;99.90
41722;DHT22;27407;24.142;-110.310;2023-11-19T03:04:09;27.00;99.90
41722;DHT22;27407;24.142;-110.310;2023-11-19T03:06:38;27.00;99.90
41722;DHT22;27407;24.142;-110.310;2023-11-19T03:09:05;27.00;99.90
41722;DHT22;27407;24.142;-110.310;2023-11-19T03:11:36;26.90;99.90
41722;DHT22;27407;24.142;-110.310;2023-11-19T03:14:03;26.90;99.90
41722;DHT22;27407;24.142;-110.310;2023-11-19T03:16:29;26.90;99.90
41722;DHT22;27407;24.142;-110.310;2023-11-19T03:18:56;26.80;99.90
41722;DHT22;27407;24.142;-110.310;2023-11-19T03:21:29;26.80;99.90
41722;DHT22;27407;24.142;-110.310;2023-11-19T03:23:58;26.80;99.90
41722;DHT22;27407;24.142;-110.310;2023-11-19T03:26:27;26.70;99.90
41722;DHT22;27407;24.142;-110.310;2023-11-19T03:28:54;26.70;99.90
41722;DHT22;27407;24.142;-110.310;2023-11-19T03:31:23;26.70;99.90
41722;DHT22;27407;24.142;-110.310;2023-11-19T03:33:51;26.60;99.90
41722;DHT22;27407;24.142;-110.310;2023-11-19T03:36:17;26.50;99.90
41722;DHT22;27407;24.142;-110.310;2023-11-19T03:38:44;26.50;99.90
41722;DHT22;27407;24.142;-110.310;2023-11-19T03:41:12;26.50;99.90
41722;DHT22;27407;24.142;-110.310;2023-11-19T03:43:39;26.50;99.90
41722;DHT22;27407;24.142;-110.310;2023-11-19T03:46:19;26.40;99.90
41722;DHT22;27407;24.142;-110.310;2023-11-19T03:48:47;26.40;99.90
41722;DHT22;27407;24.142;-110.310;2023-11-19T03:51:14;26.40;99.90
41722;DHT22;27407;24.142;-110.310;2023-11-19T03:53:45;26.40;99.90
41722;DHT22;27407;24.142;-110.310;2023-11-19T03:56:12;26.40;99.90
41722;DHT22;27407;24.142;-110.310;2023-11-19T03:58:39;26.40;99.90
41722;DHT22;27407;24.142;-110.310;2023-11-19T04:01:11;26.30;99.90
41722;DHT22;27407;24.142;-110.310;2023-11-19T04:03:40;26.30;99.90
41722;DHT22;27407;24.142;-110.310;2023-11-19T04:06:07;26.30;99.90
41722;DHT22;27407;24.142;-110.310;2023-11-19T04:08:34;26.30;99.90
41722;DHT22;27407;24.142;-110.310;2023-11-19T04:11:03;26.30;99.90
41722;DHT22;27407;24.142;-110.310;2023-11-19T04:13:30;26.30;99.90
41722;DHT22;27407;24.142;-110.310;2023-11-19T04:15:56;26.30;99.90
41722;DHT22;27407;24.142;-110.310;2023-11-19T04:18:23;26.30;99.90
41722;DHT22;27407;24.142;-110.310;2023-11-19T04:20:50;26.30;99.90
41722;DHT22;27407;24.142;-110.310;2023-11-19T04:23:17;26.20;99.90
41722;DHT22;27407;24.142;-110.310;2023-11-19T04:25:43;26.20;99.90
41722;DHT22;27407;24.142;-110.310;2023-11-19T04:28:10;26.30;99.90
41722;DHT22;27407;24.142;-110.310;2023-11-19T04:30:37;26.20;99.90
41722;DHT22;27407;24.142;-110.310;2023-11-19T04:33:03;26.20;99.90
41722;DHT22;27407;24.142;-110.310;2023-11-19T04:35:30;26.20;99.90
41722;DHT22;27407;24.142;-110.310;2023-11-19T04:37:57;26.20;99.90
41722;DHT22;27407;24.142;-110.310;2023-11-19T04:40:24;26.20;99.90
41722;DHT22;27407;24.142;-110.310;2023-11-19T04:42:50;26.20;99.90
41722;DHT22;27407;24.142;-110.310;2023-11-19T04:45:17;26.20;99.90
41722;DHT22;27407;24.142;-110.310;2023-11-19T04:47:43;26.20;99.90
41722;DHT22;27407;24.142;-110.310;2023-11-19T04:50:10;26.20;99.90
41722;DHT22;27407;24.142;-110.310;2023-11-19T04:52:39;26.20;99.90
41722;DHT22;27407;24.142;-110.310;2023-11-19T04:55:07;26.10;99.90
41722;DHT22;27407;24.142;-110.310;2023-11-19T04:57:33;26.10;99.90
41722;DHT22;27407;24.142;-110.310;2023-11-19T05:00:00;26.10;99.90
41722;DHT22;27407;24.142;-110.310;2023-11-19T05:02:27;26.10;99.90
41722;DHT22;27407;24.142;-110.310;2023-11-19T05:04:53;26.10;99.90
41722;DHT22;27407;24.142;-110.310;2023-11-19T05:07:20;26.10;99.90
41722;DHT22;27407;24.142;-110.310;2023-11-19T05:09:46;26.10;99.90
41722;DHT22;27407;24.142;-110.310;2023-11-19T05:12:13;26.10;99.90
41722;DHT22;27407;24.142;-110.310;2023-11-19T05:14:40;26.00;99.90
41722;DHT22;27407;24.142;-110.310;2023-11-19T05:17:06;26.00;99.90
41722;DHT22;27407;24.142;-110.310;2023-11-19T05:19:33;26.00;99.90
41722;DHT22;27407;24.142;-110.310;2023-11-19T05:22:00;26.00;99.90
41722;DHT22;27407;24.142;-110.310;2023-11-19T05:24:27;26.00;99.90
41722;DHT22;27407;24.142;-110.310;2023-11-19T05:26:53;26.00;99.90
41722;DHT22;27407;24.142;-110.310;2023-11-19T05:29:20;25.90;99.90
41722;DHT22;27407;24.142;-110.310;2023-11-19T05:31:46;25.90;99.90
41722;DHT22;27407;24.142;-110.310;2023-11-19T05:34:13;25.90;99.90
41722;DHT22;27407;24.142;-110.310;2023-11-19T05:36:41;25.90;99.90
41722;DHT22;27407;24.142;-110.310;2023-11-19T05:39:07;26.00;99.90
41722;DHT22;27407;24.142;-110.310;2023-11-19T05:41:34;25.90;99.90
41722;DHT22;27407;24.142;-110.310;2023-11-19T05:44:01;25.90;99.90
41722;DHT22;27407;24.142;-110.310;2023-11-19T05:46:27;25.90;99.90
41722;DHT22;27407;24.142;-110.310;2023-11-19T05:48:54;25.90;99.90
41722;DHT22;27407;24.142;-110.310;2023-11-19T05:51:21;25.90;99.90
41722;DHT22;27407;24.142;-110.310;2023-11-19T05:53:50;25.80;99.90
41722;DHT22;27407;24.142;-110.310;2023-11-19T05:56:16;25.70;99.90
41722;DHT22;27407;24.142;-110.310;2023-11-19T05:58:47;25.70;99.90
41722;DHT22;27407;24.142;-110.310;2023-11-19T06:01:15;25.70;99.90
41722;DHT22;27407;24.142;-110.310;2023-11-19T06:03:42;25.70;99.90
41722;DHT22;27407;24.142;-110.310;2023-11-19T06:06:09;25.70;99.90
41722;DHT22;27407;24.142;-110.310;2023-11-19T06:08:36;25.60;99.90
41722;DHT22;27407;24.142;-110.310;2023-11-19T06:11:03;25.60;99.90
41722;DHT22;27407;24.142;-110.310;2023-11-19T06:13:30;25.50;99.90
41722;DHT22;27407;24.142;-110.310;2023-11-19T06:15:57;25.50;99.90
41722;DHT22;27407;24.142;-110.310;2023-11-19T06:18:23;25.50;99.90
41722;DHT22;27407;24.142;-110.310;2023-11-19T06:20:51;25.60;99.90
41722;DHT22;27407;24.142;-110.310;2023-11-19T06:23:17;25.60;99.90
41722;DHT22;27407;24.142;-110.310;2023-11-19T06:25:44;25.60;99.90
41722;DHT22;27407;24.142;-110.310;2023-11-19T06:28:11;25.50;99.90
41722;DHT22;27407;24.142;-110.310;2023-11-19T06:30:37;25.50;99.90
41722;DHT22;27407;24.142;-110.310;2023-11-19T06:33:04;25.50;99.90
41722;DHT22;27407;24.142;-110.310;2023-11-19T06:35:31;25.50;99.90
41722;DHT22;27407;24.142;-110.310;2023-11-19T06:38:03;25.50;99.90
41722;DHT22;27407;24.142;-110.310;2023-11-19T06:40:33;25.50;99.90
41722;DHT22;27407;24.142;-110.310;2023-11-19T06:43:06;25.40;99.90
41722;DHT22;27407;24.142;-110.310;2023-11-19T06:45:35;25.40;99.90
41722;DHT22;27407;24.142;-110.310;2023-11-19T06:48:04;25.50;99.90
41722;DHT22;27407;24.142;-110.310;2023-11-19T06:50:31;25.40;99.90
41722;DHT22;27407;24.142;-110.310;2023-11-19T06:52:58;25.40;99.90
41722;DHT22;27407;24.142;-110.310;2023-11-19T06:55:25;25.40;99.90
41722;DHT22;27407;24.142;-110.310;2023-11-19T06:57:52;25.30;99.90
41722;DHT22;27407;24.142;-110.310;2023-11-19T07:00:19;25.30;99.90
41722;DHT22;27407;24.142;-110.310;2023-11-19T07:02:46;25.30;99.90
41722;DHT22;27407;24.142;-110.310;2023-11-19T07:05:12;25.30;99.90
41722;DHT22;27407;24.142;-110.310;2023-11-19T07:07:39;25.20;99.90
41722;DHT22;27407;24.142;-110.310;2023-11-19T07:10:06;25.20;99.90
41722;DHT22;27407;24.142;-110.310;2023-11-19T07:12:35;25.20;99.90
41722;DHT22;27407;24.142;-110.310;2023-11-19T07:15:02;25.20;99.90
41722;DHT22;27407;24.142;-110.310;2023-11-19T07:17:31;25.20;99.90
41722;DHT22;27407;24.142;-110.310;2023-11-19T07:19:57;25.10;99.90
41722;DHT22;27407;24.142;-110.310;2023-11-19T07:22:26;25.20;99.90
41722;DHT22;27407;24.142;-110.310;2023-11-19T07:24:52;25.20;99.90
41722;DHT22;27407;24.142;-110.310;2023-11-19T07:27:19;25.10;99.90
41722;DHT22;27407;24.142;-110.310;2023-11-19T07:29:46;25.10;99.90
41722;DHT22;27407;24.142;-110.310;2023-11-19T07:32:12;25.10;99.90
41722;DHT22;27407;24.142;-110.310;2023-11-19T07:34:43;25.00;99.90
41722;DHT22;27407;24.142;-110.310;2023-11-19T07:37:10;25.00;99.90
41722;DHT22;27407;24.142;-110.310;2023-11-19T07:39:36;24.90;99.90
41722;DHT22;27407;24.142;-110.310;2023-11-19T07:42:07;24.90;99.90
41722;DHT22;27407;24.142;-110.310;2023-11-19T07:44:35;24.80;99.90
41722;DHT22;27407;24.142;-110.310;2023-11-19T07:47:02;24.80;99.90
41722;DHT22;27407;24.142;-110.310;2023-11-19T07:49:29;24.80;99.90
41722;DHT22;27407;24.142;-110.310;2023-11-19T07:51:57;24.70;99.90
41722;DHT22;27407;24.142;-110.310;2023-11-19T07:54:23;24.60;99.90
41722;DHT22;27407;24.142;-110.310;2023-11-19T07:56:50;24.50;99.90
41722;DHT22;27407;24.142;-110.310;2023-11-19T07:59:16;24.50;99.90
41722;DHT22;27407;24.142;-110.310;2023-11-19T08:01:43;24.40;99.90
41722;DHT22;27407;24.142;-110.310;2023-11-19T08:04:10;24.40;99.90
41722;DHT22;27407;24.142;-110.310;2023-11-19T08:06:37;24.40;99.90
41722;DHT22;27407;24.142;-110.310;2023-11-19T08:09:04;24.40;99.90
41722;DHT22;27407;24.142;-110.310;2023-11-19T08:11:31;24.40;99.90
41722;DHT22;27407;24.142;-110.310;2023-11-19T08:13:57;24.40;99.90
41722;DHT22;27407;24.142;-110.310;2023-11-19T08:16:24;24.40;99.90
41722;DHT22;27407;24.142;-110.310;2023-11-19T08:18:51;24.40;99.90
41722;DHT22;27407;24.142;-110.310;2023-11-19T08:21:18;24.40;99.90
41722;DHT22;27407;24.142;-110.310;2023-11-19T08:23:44;24.40;99.90
41722;DHT22;27407;24.142;-110.310;2023-11-19T08:26:11;24.40;99.90
41722;DHT22;27407;24.142;-110.310;2023-11-19T08:28:37;24.40;99.90
41722;DHT22;27407;24.142;-110.310;2023-11-19T08:31:04;24.30;99.90
41722;DHT22;27407;24.142;-110.310;2023-11-19T08:33:31;24.40;99.90
41722;DHT22;27407;24.142;-110.310;2023-11-19T08:35:58;24.30;99.90
41722;DHT22;27407;24.142;-110.310;2023-11-19T08:38:25;24.20;99.90
41722;DHT22;27407;24.142;-110.310;2023-11-19T08:40:51;24.20;99.90
41722;DHT22;27407;24.142;-110.310;2023-11-19T08:43:18;24.20;99.90
41722;DHT22;27407;24.142;-110.310;2023-11-19T08:45:45;24.20;99.90
41722;DHT22;27407;24.142;-110.310;2023-11-19T08:48:11;24.20;99.90
41722;DHT22;27407;24.142;-110.310;2023-11-19T08:50:38;24.20;99.90
41722;DHT22;27407;24.142;-110.310;2023-11-19T08:53:04;24.10;99.90
41722;DHT22;27407;24.142;-110.310;2023-11-19T08:55:32;24.20;99.90
41722;DHT22;27407;24.142;-110.310;2023-11-19T08:57:59;24.10;99.90
41722;DHT22;27407;24.142;-110.310;2023-11-19T09:00:26;24.00;99.90
41722;DHT22;27407;24.142;-110.310;2023-11-19T09:02:52;24.00;99.90
41722;DHT22;27407;24.142;-110.310;2023-11-19T09:05:19;24.00;99.90
41722;DHT22;27407;24.142;-110.310;2023-11-19T09:07:45;24.00;99.90
41722;DHT22;27407;24.142;-110.310;2023-11-19T09:10:12;24.10;99.90
41722;DHT22;27407;24.142;-110.310;2023-11-19T09:12:39;24.10;99.90
41722;DHT22;27407;24.142;-110.310;2023-11-19T09:15:06;24.00;99.90
41722;DHT22;27407;24.142;-110.310;2023-11-19T09:17:32;24.00;99.90
41722;DHT22;27407;24.142;-110.310;2023-11-19T09:19:59;24.00;99.90
41722;DHT22;27407;24.142;-110.310;2023-11-19T09:22:26;23.90;99.90
41722;DHT22;27407;24.142;-110.310;2023-11-19T09:24:53;23.90;99.90
41722;DHT22;27407;24.142;-110.310;2023-11-19T09:27:20;23.90;99.90
41722;DHT22;27407;24.142;-110.310;2023-11-19T09:29:46;23.90;99.90
41722;DHT22;27407;24.142;-110.310;2023-11-19T09:32:15;23.90;99.90
41722;DHT22;27407;24.142;-110.310;2023-11-19T09:34:41;23.80;99.90
41722;DHT22;27407;24.142;-110.310;2023-11-19T09:37:08;23.70;99.90
41722;DHT22;27407;24.142;-110.310;2023-11-19T09:39:34;23.80;99.90
41722;DHT22;27407;24.142;-110.310;2023-11-19T09:42:01;23.80;99.90
41722;DHT22;27407;24.142;-110.310;2023-11-19T09:44:28;23.70;99.90
41722;DHT22;27407;24.142;-110.310;2023-11-19T09:46:54;23.70;99.90
41722;DHT22;27407;24.142;-110.310;2023-11-19T09:49:24;23.70;99.90
41722;DHT22;27407;24.142;-110.310;2023-11-19T09:51:52;23.70;99.90
41722;DHT22;27407;24.142;-110.310;2023-11-19T09:54:18;23.70;99.90
41722;DHT22;27407;24.142;-110.310;2023-11-19T09:56:46;23.70;99.90
41722;DHT22;27407;24.142;-110.310;2023-11-19T09:59:12;23.70;99.90
41722;DHT22;27407;24.142;-110.310;2023-11-19T10:01:40;23.60;99.90
41722;DHT22;27407;24.142;-110.310;2023-11-19T10:04:07;23.50;99.90
41722;DHT22;27407;24.142;-110.310;2023-11-19T10:06:34;23.40;99.90
41722;DHT22;27407;24.142;-110.310;2023-11-19T10:09:01;23.40;99.90
41722;DHT22;27407;24.142;-110.310;2023-11-19T10:11:30;23.30;99.90
41722;DHT22;27407;24.142;-110.310;2023-11-19T10:13:58;23.20;99.90
41722;DHT22;27407;24.142;-110.310;2023-11-19T10:16:29;23.30;99.90
41722;DHT22;27407;24.142;-110.310;2023-11-19T10:18:59;23.30;99.90
41722;DHT22;27407;24.142;-110.310;2023-11-19T10:21:26;23.30;99.90
41722;DHT22;27407;24.142;-110.310;2023-11-19T10:23:57;23.40;99.90
41722;DHT22;27407;24.142;-110.310;2023-11-19T10:26:26;23.50;99.90
41722;DHT22;27407;24.142;-110.310;2023-11-19T10:28:55;23.50;99.90
41722;DHT22;27407;24.142;-110.310;2023-11-19T10:31:22;23.50;99.90
41722;DHT22;27407;24.142;-110.310;2023-11-19T10:33:52;23.60;99.90
41722;DHT22;27407;24.142;-110.310;2023-11-19T10:36:19;23.70;99.90
41722;DHT22;27407;24.142;-110.310;2023-11-19T10:38:56;23.80;99.90
41722;DHT22;27407;24.142;-110.310;2023-11-19T10:41:30;23.90;99.90
41722;DHT22;27407;24.142;-110.310;2023-11-19T10:43:58;23.90;99.90
41722;DHT22;27407;24.142;-110.310;2023-11-19T10:46:37;24.00;99.90
41722;DHT22;27407;24.142;-110.310;2023-11-19T10:49:05;24.00;99.90
41722;DHT22;27407;24.142;-110.310;2023-11-19T10:51:32;24.00;99.90
41722;DHT22;27407;24.142;-110.310;2023-11-19T10:54:06;24.00;99.90
41722;DHT22;27407;24.142;-110.310;2023-11-19T10:56:33;24.00;99.90
41722;DHT22;27407;24.142;-110.310;2023-11-19T10:59:01;24.00;99.90
41722;DHT22;27407;24.142;-110.310;2023-11-19T11:01:39;24.00;99.90
41722;DHT22;27407;24.142;-110.310;2023-11-19T11:04:22;24.00;99.90
41722;DHT22;27407;24.142;-110.310;2023-11-19T11:06:50;24.00;99.90
41722;DHT22;27407;24.142;-110.310;2023-11-19T11:09:17;23.90;99.90
41722;DHT22;27407;24.142;-110.310;2023-11-19T11:11:48;23.90;99.90
41722;DHT22;27407;24.142;-110.310;2023-11-19T11:14:16;23.90;99.90
41722;DHT22;27407;24.142;-110.310;2023-11-19T11:16:46;23.90;99.90
41722;DHT22;27407;24.142;-110.310;2023-11-19T11:19:16;23.90;99.90
41722;DHT22;27407;24.142;-110.310;2023-11-19T11:21:49;23.80;99.90
41722;DHT22;27407;24.142;-110.310;2023-11-19T11:38:06;24.00;99.90
41722;DHT22;27407;24.142;-110.310;2023-11-19T11:40:34;24.00;99.90
41722;DHT22;27407;24.142;-110.310;2023-11-19T11:43:02;24.00;99.90
41722;DHT22;27407;24.142;-110.310;2023-11-19T11:45:38;24.00;99.90
41722;DHT22;27407;24.142;-110.310;2023-11-19T11:48:10;24.10;99.90
41722;DHT22;27407;24.142;-110.310;2023-11-19T11:50:51;24.10;99.90
41722;DHT22;27407;24.142;-110.310;2023-11-19T11:53:19;24.10;99.90
41722;DHT22;27407;24.142;-110.310;2023-11-19T11:58:26;24.20;99.90
41722;DHT22;27407;24.142;-110.310;2023-11-19T12:00:53;24.30;99.90
41722;DHT22;27407;24.142;-110.310;2023-11-19T12:03:22;24.40;99.90
41722;DHT22;27407;24.142;-110.310;2023-11-19T12:05:49;24.40;99.90
41722;DHT22;27407;24.142;-110.310;2023-11-19T12:08:20;24.50;99.90
41722;DHT22;27407;24.142;-110.310;2023-11-19T12:10:52;24.50;99.90
41722;DHT22;27407;24.142;-110.310;2023-11-19T12:13:19;24.60;99.90
41722;DHT22;27407;24.142;-110.310;2023-11-19T12:18:28;24.60;99.90
41722;DHT22;27407;24.142;-110.310;2023-11-19T12:20:55;24.70;99.90
41722;DHT22;27407;24.142;-110.310;2023-11-19T12:23:26;24.70;99.90
41722;DHT22;27407;24.142;-110.310;2023-11-19T12:25:53;24.80;99.90
41722;DHT22;27407;24.142;-110.310;2023-11-19T12:28:19;24.80;99.90
41722;DHT22;27407;24.142;-110.310;2023-11-19T12:30:46;24.90;99.90
41722;DHT22;27407;24.142;-110.310;2023-11-19T12:33:14;25.10;99.90
41722;DHT22;27407;24.142;-110.310;2023-11-19T12:35:45;25.20;99.90
41722;DHT22;27407;24.142;-110.310;2023-11-19T12:38:20;25.40;99.90
41722;DHT22;27407;24.142;-110.310;2023-11-19T12:40:47;25.40;99.90
41722;DHT22;27407;24.142;-110.310;2023-11-19T12:43:23;25.50;99.90
41722;DHT22;27407;24.142;-110.310;2023-11-19T12:45:49;25.70;99.90
41722;DHT22;27407;24.142;-110.310;2023-11-19T12:48:16;25.80;99.90
41722;DHT22;27407;24.142;-110.310;2023-11-19T12:51:00;25.80;99.90
41722;DHT22;27407;24.142;-110.310;2023-11-19T12:53:27;26.00;99.90
41722;DHT22;27407;24.142;-110.310;2023-11-19T12:55:55;25.80;99.90
41722;DHT22;27407;24.142;-110.310;2023-11-19T12:58:35;25.70;99.90
41722;DHT22;27407;24.142;-110.310;2023-11-19T13:01:07;25.70;99.90
41722;DHT22;27407;24.142;-110.310;2023-11-19T13:03:39;25.70;99.90
41722;DHT22;27407;24.142;-110.310;2023-11-19T13:06:13;25.80;99.90
41722;DHT22;27407;24.142;-110.310;2023-11-19T13:08:44;25.80;99.90
41722;DHT22;27407;24.142;-110.310;2023-11-19T13:11:12;25.80;99.90
41722;DHT22;27407;24.142;-110.310;2023-11-19T13:14:04;26.00;99.90
41722;DHT22;27407;24.142;-110.310;2023-11-19T13:16:32;25.80;99.90
41722;DHT22;27407;24.142;-110.310;2023-11-19T13:18:58;25.90;99.90
41722;DHT22;27407;24.142;-110.310;2023-11-19T13:21:26;25.80;99.90
41722;DHT22;27407;24.142;-110.310;2023-11-19T13:23:52;25.80;99.90
41722;DHT22;27407;24.142;-110.310;2023-11-19T13:26:19;25.80;99.90
41722;DHT22;27407;24.142;-110.310;2023-11-19T13:28:46;25.70;99.90
41722;DHT22;27407;24.142;-110.310;2023-11-19T13:31:12;25.60;99.90
41722;DHT22;27407;24.142;-110.310;2023-11-19T13:33:40;25.70;99.90
41722;DHT22;27407;24.142;-110.310;2023-11-19T13:36:07;25.70;99.90
41722;DHT22;27407;24.142;-110.310;2023-11-19T13:38:35;25.60;99.90
41722;DHT22;27407;24.142;-110.310;2023-11-19T13:41:02;25.70;99.90
41722;DHT22;27407;24.142;-110.310;2023-11-19T13:43:30;25.50;99.90
41722;DHT22;27407;24.142;-110.310;2023-11-19T13:45:57;25.60;99.90
41722;DHT22;27407;24.142;-110.310;2023-11-19T13:48:24;25.50;99.90
41722;DHT22;27407;24.142;-110.310;2023-11-19T13:50:52;25.40;99.90
41722;DHT22;27407;24.142;-110.310;2023-11-19T13:53:19;25.50;99.90
41722;DHT22;27407;24.142;-110.310;2023-11-19T13:55:46;25.60;99.90
41722;DHT22;27407;24.142;-110.310;2023-11-19T13:58:13;25.50;99.90
41722;DHT22;27407;24.142;-110.310;2023-11-19T14:00:40;25.50;99.90
41722;DHT22;27407;24.142;-110.310;2023-11-19T14:03:08;25.50;99.90
41722;DHT22;27407;24.142;-110.310;2023-11-19T14:05:36;25.50;99.90
41722;DHT22;27407;24.142;-110.310;2023-11-19T14:08:04;25.50;99.90
41722;DHT22;27407;24.142;-110.310;2023-11-19T14:10:38;25.40;99.90
41722;DHT22;27407;24.142;-110.310;2023-11-19T14:13:08;25.50;99.90
41722;DHT22;27407;24.142;-110.310;2023-11-19T14:15:35;25.50;99.90
41722;DHT22;27407;24.142;-110.310;2023-11-19T14:18:02;25.60;99.90
41722;DHT22;27407;24.142;-110.310;2023-11-19T14:20:29;25.70;99.90
41722;DHT22;27407;24.142;-110.310;2023-11-19T14:22:55;25.80;99.90
41722;DHT22;27407;24.142;-110.310;2023-11-19T14:25:22;25.70;99.90
41722;DHT22;27407;24.142;-110.310;2023-11-19T14:27:49;25.80;99.90
41722;DHT22;27407;24.142;-110.310;2023-11-19T14:30:16;25.70;99.90
41722;DHT22;27407;24.142;-110.310;2023-11-19T14:32:43;25.80;99.90
41722;DHT22;27407;24.142;-110.310;2023-11-19T14:35:12;25.80;99.90
41722;DHT22;27407;24.142;-110.310;2023-11-19T14:37:38;25.80;99.90
41722;DHT22;27407;24.142;-110.310;2023-11-19T14:40:06;25.80;99.90
41722;DHT22;27407;24.142;-110.310;2023-11-19T14:42:37;26.00;99.90
41722;DHT22;27407;24.142;-110.310;2023-11-19T14:45:06;26.10;99.90
41722;DHT22;27407;24.142;-110.310;2023-11-19T14:47:33;26.00;99.90
41722;DHT22;27407;24.142;-110.310;2023-11-19T14:50:00;26.00;99.90
41722;DHT22;27407;24.142;-110.310;2023-11-19T14:52:26;26.10;99.90
41722;DHT22;27407;24.142;-110.310;2023-11-19T14:54:53;26.00;99.90
41722;DHT22;27407;24.142;-110.310;2023-11-19T14:57:20;26.20;99.90
41722;DHT22;27407;24.142;-110.310;2023-11-19T14:59:46;26.20;99.90
41722;DHT22;27407;24.142;-110.310;2023-11-19T15:02:13;26.30;99.90
41722;DHT22;27407;24.142;-110.310;2023-11-19T15:04:40;26.50;99.90
41722;DHT22;27407;24.142;-110.310;2023-11-19T15:07:08;26.50;99.90
41722;DHT22;27407;24.142;-110.310;2023-11-19T15:09:34;26.50;99.90
41722;DHT22;27407;24.142;-110.310;2023-11-19T15:12:03;26.60;99.90